TFM - Tactical Decision Aid (Experimental) INFO Settings

ID: Runway Winds: CIG/VIS Threshold: METAR Board: Map:

KDFW - Dallas/Fort Worth Intl

Updated at: 0226 UTC 24 Nov 2014
Latest TAF at: 2324 UTC 23 Nov 2014

TAF Board

Time0153Z24/03Z24/04Z24/05Z24/06Z24/07Z24/08Z24/09Z24/10Z24/11Z24/12Z24/13Z24/14Z24/15Z
TypeOBSPRVLPRVLPRVLPRVLPRVLPRVLPRVLPRVLPRVLPRVLPRVLPRVLPRVL
VIS10>6>6>6>6>6>6>6>6>6>6>6>6>6
CIG----------------------------
CoverFEWSCTSCTSCTSCTSCTSCTFEWFEWFEWFEWFEWFEWFEW
FltCat--VFRVFRVFRVFRVFRVFRVFRVFRVFRVFRVFRVFRVFR
WX----------------------------
WDir310310310310310310310300300300300300300300
WSpd2118151515151511111111111111
WGst2928------------------------
TAF
KDFW 232324Z 2400/2506 30022G32KT P6SM FEW060
  FM240200 31018G28KT P6SM SCT040
  FM240400 31015KT P6SM SCT100
  FM240900 30011KT P6SM FEW150
  FM250000 24005KT P6SM SCT250


METAR
KDFW 240153Z 31021G29KT 10SM FEW050 13/04 A2966 RMK AO2 PK WND 32031/0057 SLP040 T01280044 $

TAF/METAR Board Legend

Potential Impact
  None Marginal Slight Moderate High
Visibility (sm) >5 3≤X≤5 1≤X<3 0.5≤X<1 <0.5
Ceiling (100 ft) >30 10≤X≤30 4≤X<10 2≤X<4 <2
Wind Speed (kt) <10 10≤X<20 20≤X<30 ≥30
Wind Gust (kt) <15 15≤X<25 25≤X<35 ≥35
Weather No Wx Reported VCTS -TS,-FZRA TS,FZRA +TS,+FZRA




Notice: Undefined offset: -1 in /caws/site/new_awc/application/modules/trafficflowmgmt/controllers/TdaController.php on line 267